Time;durP1;ratioP1;P1;durP2;ratioP2;P2;SDS_P1;SDS_P2;PMS_P1;PMS_P2;Temp;Humidity;BMP_temperature;BMP_pressure;BME280_temperature;BME280_humidity;BME280_pressure;Samples;Min_cycle;Max_cycle;Signal;HPM_P1;HPM_P2
2023/09/27 00:00:29;;;;;;;8.70;7.60;;;14.60;99.90;;;;;;5037000;28;20468;-59
2023/09/27 00:02:57;;;;;;;8.27;7.30;;;14.60;99.90;;;;;;5036124;28;20491;-58
2023/09/27 00:05:25;;;;;;;8.13;7.40;;;14.50;99.90;;;;;;5036403;28;20470;-59
2023/09/27 00:07:52;;;;;;;10.73;7.47;;;14.50;99.90;;;;;;5036949;28;20490;-59
2023/09/27 00:10:21;;;;;;;7.80;7.10;;;14.40;99.90;;;;;;5036878;28;20507;-59
2023/09/27 00:12:49;;;;;;;7.73;7.03;;;14.30;99.90;;;;;;5036759;28;20550;-59
2023/09/27 00:15:16;;;;;;;12.00;8.40;;;14.30;1.00;;;;;;5036586;28;20832;-59
2023/09/27 00:17:44;;;;;;;7.10;6.47;;;14.20;1.00;;;;;;5036189;28;20525;-59
2023/09/27 00:20:15;;;;;;;7.97;7.17;;;14.20;1.00;;;;;;5036420;28;20463;-58
2023/09/27 00:22:43;;;;;;;8.53;7.73;;;14.20;1.00;;;;;;5036457;28;20491;-58
2023/09/27 00:25:10;;;;;;;7.10;6.40;;;14.10;99.90;;;;;;5036760;28;20459;-58
2023/09/27 00:27:39;;;;;;;7.40;6.70;;;14.10;99.90;;;;;;5036329;28;20451;-58
2023/09/27 00:30:08;;;;;;;8.30;7.53;;;14.10;99.90;;;;;;5036443;28;20466;-58
2023/09/27 00:32:35;;;;;;;7.63;6.87;;;14.10;99.90;;;;;;5037005;28;20510;-58
2023/09/27 00:35:03;;;;;;;9.53;7.10;;;14.10;99.90;;;;;;5035883;28;20487;-58
2023/09/27 00:37:30;;;;;;;8.60;7.80;;;14.10;65.90;;;;;;5036463;28;20793;-59
2023/09/27 00:39:57;;;;;;;7.53;6.80;;;14.10;31.50;;;;;;5036357;28;20463;-59
2023/09/27 00:42:24;;;;;;;9.57;7.30;;;14.10;1.00;;;;;;5036365;28;20577;-58
2023/09/27 00:44:53;;;;;;;8.13;6.70;;;14.10;1.00;;;;;;5036557;28;20455;-59
2023/09/27 00:47:20;;;;;;;9.50;8.60;;;13.90;1.00;;;;;;5036167;28;20947;-59
2023/09/27 00:49:53;;;;;;;8.30;7.33;;;14.00;5.60;;;;;;5036125;28;20553;-59
2023/09/27 00:52:21;;;;;;;8.30;7.50;;;14.00;16.90;;;;;;5036438;28;20459;-59
2023/09/27 00:54:48;;;;;;;9.83;8.10;;;14.00;1.00;;;;;;5036081;28;20561;-59
2023/09/27 00:57:15;;;;;;;7.87;7.07;;;13.90;5.50;;;;;;5035581;28;20434;-59
2023/09/27 00:59:43;;;;;;;8.17;7.40;;;13.80;1.00;;;;;;5035687;28;20471;-59
2023/09/27 01:02:12;;;;;;;8.60;7.80;;;13.70;46.40;;;;;;5036058;28;20494;-59
2023/09/27 01:04:40;;;;;;;8.70;7.80;;;13.70;99.90;;;;;;5036068;28;20463;-59
2023/09/27 01:07:08;;;;;;;8.93;7.40;;;13.70;99.90;;;;;;5035138;28;20487;-59
2023/09/27 01:09:37;;;;;;;7.90;6.90;;;13.70;99.90;;;;;;5035158;28;20459;-59
2023/09/27 01:12:04;;;;;;;7.40;6.70;;;13.70;99.90;;;;;;5035979;28;20463;-59
2023/09/27 01:14:32;;;;;;;7.13;6.53;;;13.70;99.90;;;;;;5035833;28;20800;-59
2023/09/27 01:17:09;;;;;;;8.90;7.83;;;13.60;99.90;;;;;;5035030;28;20577;-59
2023/09/27 01:19:40;;;;;;;8.40;6.90;;;13.60;99.90;;;;;;5035453;28;20459;-59
2023/09/27 01:22:07;;;;;;;8.43;7.70;;;13.50;99.90;;;;;;5035581;28;20864;-58
2023/09/27 01:24:37;;;;;;;7.53;6.83;;;13.50;99.90;;;;;;5035567;28;20574;-58
2023/09/27 01:27:09;;;;;;;10.20;7.30;;;13.50;99.90;;;;;;5035486;28;20764;-59
2023/09/27 01:29:37;;;;;;;9.70;7.57;;;13.40;99.90;;;;;;5035361;28;20557;-59
2023/09/27 01:32:04;;;;;;;9.67;8.67;;;13.40;99.90;;;;;;5035681;28;20461;-59
2023/09/27 01:34:31;;;;;;;7.67;6.97;;;13.30;1.00;;;;;;5035332;28;20504;-59
2023/09/27 01:36:58;;;;;;;7.60;6.90;;;13.20;99.90;;;;;;5034838;28;20460;-59
2023/09/27 01:39:26;;;;;;;8.60;7.80;;;13.20;99.90;;;;;;5035210;28;20748;-59
2023/09/27 01:41:55;;;;;;;9.13;8.20;;;13.20;99.90;;;;;;5035204;28;20463;-59
2023/09/27 01:44:23;;;;;;;7.47;6.70;;;13.30;99.90;;;;;;5035277;28;20438;-59
2023/09/27 01:46:50;;;;;;;8.57;7.77;;;13.30;99.90;;;;;;5035446;28;20491;-59
2023/09/27 01:49:17;;;;;;;8.80;8.00;;;13.20;99.90;;;;;;5034889;28;20433;-59
2023/09/27 01:51:45;;;;;;;8.87;8.07;;;13.20;99.90;;;;;;5035082;28;20485;-59
2023/09/27 01:54:12;;;;;;;8.03;7.33;;;13.20;18.30;;;;;;5035319;28;20486;-59
2023/09/27 01:56:39;;;;;;;8.80;8.07;;;13.20;1.00;;;;;;5035149;28;20851;-59
2023/09/27 01:59:08;;;;;;;9.47;8.57;;;13.10;1.00;;;;;;5034804;28;20455;-59
2023/09/27 02:01:35;;;;;;;8.17;7.37;;;13.10;99.90;;;;;;5035152;28;20909;-59
2023/09/27 02:04:02;;;;;;;8.93;7.13;;;13.00;99.90;;;;;;5035102;28;20495;-59
2023/09/27 02:06:29;;;;;;;8.80;8.00;;;13.00;99.90;;;;;;5035081;28;20512;-59
2023/09/27 02:08:57;;;;;;;8.73;8.03;;;12.90;1.00;;;;;;5033892;28;20557;-59
2023/09/27 02:11:25;;;;;;;8.90;7.97;;;12.90;5.10;;;;;;5034382;28;20495;-59
2023/09/27 02:13:53;;;;;;;13.03;9.13;;;12.90;99.90;;;;;;5034667;28;20471;-58
2023/09/27 02:16:22;;;;;;;8.67;7.77;;;13.00;99.90;;;;;;5034657;28;20508;-59
2023/09/27 02:18:49;;;;;;;8.10;7.30;;;13.00;99.90;;;;;;5034764;28;20487;-59
2023/09/27 02:21:17;;;;;;;8.63;7.93;;;13.00;99.90;;;;;;5034543;28;20434;-59
2023/09/27 02:23:45;;;;;;;8.20;7.40;;;13.00;99.90;;;;;;5034462;28;20499;-59
2023/09/27 02:26:12;;;;;;;9.50;8.53;;;12.90;12.80;;;;;;5034875;28;20895;-59
2023/09/27 02:28:40;;;;;;;9.30;7.50;;;12.90;1.00;;;;;;5034478;28;20470;-59
2023/09/27 02:31:10;;;;;;;7.80;7.00;;;12.80;1.00;;;;;;5034610;28;20459;-59
2023/09/27 02:33:40;;;;;;;8.50;7.80;;;12.70;1.00;;;;;;5034586;28;20926;-59
2023/09/27 02:36:08;;;;;;;8.43;7.63;;;12.60;99.90;;;;;;5034439;28;20459;-59
2023/09/27 02:38:37;;;;;;;11.40;7.90;;;12.50;99.90;;;;;;5034437;28;20520;-59
2023/09/27 02:41:04;;;;;;;8.80;8.00;;;12.60;99.90;;;;;;5034052;28;20565;-59
2023/09/27 02:43:32;;;;;;;9.13;8.27;;;12.50;99.90;;;;;;5034484;28;20494;-59
2023/09/27 02:45:59;;;;;;;9.10;8.20;;;12.50;99.90;;;;;;5034373;28;20565;-59
2023/09/27 02:48:26;;;;;;;8.43;7.50;;;12.50;99.90;;;;;;5034585;28;20760;-59
2023/09/27 02:50:55;;;;;;;8.60;7.80;;;12.50;99.90;;;;;;5033886;28;20463;-59
2023/09/27 02:53:22;;;;;;;8.90;8.00;;;12.50;99.90;;;;;;5033842;28;20431;-59
2023/09/27 02:55:49;;;;;;;7.60;6.90;;;12.40;98.70;;;;;;5034296;28;20566;-59
2023/09/27 02:58:16;;;;;;;7.87;7.07;;;12.40;99.90;;;;;;5034000;28;20553;-59
2023/09/27 03:00:44;;;;;;;8.97;7.53;;;12.30;99.90;;;;;;5034337;28;20942;-59
2023/09/27 03:03:13;;;;;;;8.27;7.47;;;12.30;8.90;;;;;;5033678;28;20585;-59
2023/09/27 03:05:40;;;;;;;9.70;8.80;;;12.20;44.60;;;;;;5034311;28;20462;-59
2023/09/27 03:08:10;;;;;;;8.43;7.63;;;12.20;99.90;;;;;;5034082;28;20463;-59
2023/09/27 03:10:39;;;;;;;9.53;8.63;;;12.20;99.90;;;;;;5034464;28;20467;-59
2023/09/27 03:13:08;;;;;;;7.20;6.50;;;12.10;99.90;;;;;;5033675;28;20460;-59
2023/09/27 03:15:35;;;;;;;8.40;7.60;;;12.10;99.90;;;;;;5033643;28;20468;-59
2023/09/27 03:18:03;;;;;;;9.53;8.53;;;12.10;99.90;;;;;;5033977;28;20491;-59
2023/09/27 03:20:31;;;;;;;9.10;8.20;;;12.20;35.30;;;;;;5033571;28;20461;-59
2023/09/27 03:22:58;;;;;;;9.63;8.70;;;12.00;99.90;;;;;;5033595;28;20590;-59
2023/09/27 03:25:27;;;;;;;10.70;8.00;;;12.00;99.90;;;;;;5034100;28;20466;-59
2023/09/27 03:27:55;;;;;;;8.20;7.40;;;11.90;99.90;;;;;;5032293;28;20463;-56
2023/09/27 03:30:22;;;;;;;8.80;7.97;;;11.90;99.90;;;;;;5035046;28;20896;-59
2023/09/27 03:32:49;;;;;;;8.97;8.03;;;11.90;99.90;;;;;;5035802;28;20537;-58
2023/09/27 03:35:17;;;;;;;10.30;9.30;;;11.90;99.90;;;;;;5035420;28;20465;-59
2023/09/27 03:37:46;;;;;;;8.37;7.57;;;11.80;99.90;;;;;;5035789;28;20459;-59
2023/09/27 03:40:14;;;;;;;10.10;8.63;;;11.80;99.90;;;;;;5035064;28;20934;-58
2023/09/27 03:42:46;;;;;;;9.87;8.87;;;11.80;99.90;;;;;;5036244;28;20466;-59
2023/09/27 03:45:14;;;;;;;10.43;9.13;;;11.80;99.90;;;;;;5036770;28;20463;-59
2023/09/27 03:47:43;;;;;;;10.27;9.30;;;11.80;99.90;;;;;;5036959;28;20470;-59
2023/09/27 03:50:12;;;;;;;10.60;9.60;;;11.90;99.90;;;;;;5037027;28;20470;-59
2023/09/27 03:52:40;;;;;;;9.87;8.90;;;11.90;99.90;;;;;;5037438;28;20471;-59
2023/09/27 03:55:08;;;;;;;10.73;9.63;;;12.00;99.90;;;;;;5036998;28;20459;-59
2023/09/27 03:57:35;;;;;;;10.43;9.60;;;12.00;99.90;;;;;;5036768;28;20466;-59
2023/09/27 04:00:06;;;;;;;9.63;8.70;;;12.00;99.90;;;;;;5037303;28;20466;-59
2023/09/27 04:02:34;;;;;;;9.83;8.70;;;11.90;99.90;;;;;;5037101;28;20487;-59
2023/09/27 04:05:02;;;;;;;8.97;8.07;;;11.90;99.90;;;;;;5036647;28;20525;-59
2023/09/27 04:07:29;;;;;;;10.33;9.33;;;11.90;99.90;;;;;;5036558;28;20523;-58
2023/09/27 04:09:56;;;;;;;9.60;8.70;;;11.80;99.90;;;;;;5035988;28;20538;-59
2023/09/27 04:12:24;;;;;;;9.97;9.07;;;11.80;99.90;;;;;;5036900;28;20459;-58
2023/09/27 04:14:51;;;;;;;10.50;9.40;;;11.70;99.90;;;;;;5036817;28;20468;-59
2023/09/27 04:17:20;;;;;;;9.77;8.80;;;11.70;99.90;;;;;;5036598;28;20767;-59
2023/09/27 04:19:50;;;;;;;11.30;10.20;;;11.60;99.90;;;;;;5036152;28;20509;-59
2023/09/27 04:22:17;;;;;;;10.43;9.40;;;11.60;99.90;;;;;;5036743;28;20528;-59
2023/09/27 04:24:45;;;;;;;11.33;10.10;;;11.70;99.90;;;;;;5036650;28;20815;-59
2023/09/27 04:27:12;;;;;;;10.37;9.37;;;11.60;99.90;;;;;;5036154;28;20464;-59
2023/09/27 04:29:40;;;;;;;11.80;9.07;;;11.60;99.90;;;;;;5035929;28;20467;-59
2023/09/27 04:32:07;;;;;;;11.20;10.10;;;11.50;99.90;;;;;;5036539;28;20524;-59
2023/09/27 04:34:35;;;;;;;10.20;9.30;;;11.50;99.90;;;;;;5036647;28;20455;-59
2023/09/27 04:37:03;;;;;;;11.27;10.27;;;11.60;99.90;;;;;;5035810;28;20463;-59
2023/09/27 04:39:31;;;;;;;12.17;9.90;;;11.60;99.90;;;;;;5036031;28;20482;-59
2023/09/27 04:41:58;;;;;;;12.53;11.33;;;11.50;99.90;;;;;;5036306;28;20814;-59
2023/09/27 04:44:25;;;;;;;10.80;9.77;;;11.50;99.90;;;;;;5036378;28;20491;-59
2023/09/27 04:46:53;;;;;;;11.20;10.07;;;11.50;99.90;;;;;;5036399;28;20900;-59
2023/09/27 04:49:20;;;;;;;11.87;10.77;;;11.50;99.90;;;;;;5035694;28;20469;-59
2023/09/27 04:51:48;;;;;;;12.03;10.90;;;11.50;99.90;;;;;;5036039;28;20518;-59
2023/09/27 04:54:17;;;;;;;12.20;11.00;;;11.60;99.90;;;;;;5036305;28;20900;-59
2023/09/27 04:56:44;;;;;;;10.90;9.80;;;11.60;99.90;;;;;;5036108;28;20509;-59
2023/09/27 04:59:11;;;;;;;13.07;11.50;;;11.60;99.90;;;;;;5035647;28;20562;-59
2023/09/27 05:01:39;;;;;;;11.37;10.27;;;11.70;99.90;;;;;;5035713;28;20466;-59
2023/09/27 05:04:06;;;;;;;10.90;9.90;;;11.60;99.90;;;;;;5035879;28;20581;-59
2023/09/27 05:06:33;;;;;;;13.20;9.90;;;11.50;99.90;;;;;;5035526;28;20956;-59
2023/09/27 05:09:02;;;;;;;12.37;10.77;;;11.40;99.90;;;;;;5035113;28;20740;-59
2023/09/27 05:11:29;;;;;;;12.57;9.77;;;11.40;99.90;;;;;;5035282;28;20438;-59
2023/09/27 05:13:56;;;;;;;11.97;10.70;;;11.20;99.90;;;;;;5035638;28;20455;-59
2023/09/27 05:16:24;;;;;;;12.53;10.27;;;11.20;99.90;;;;;;5035408;28;20502;-58
2023/09/27 05:18:51;;;;;;;12.70;11.53;;;11.20;99.90;;;;;;5035605;28;20512;-58
2023/09/27 05:21:18;;;;;;;13.93;11.60;;;11.30;99.90;;;;;;5029594;28;20471;-59
2023/09/27 05:23:46;;;;;;;12.33;10.67;;;11.20;99.90;;;;;;5014738;28;20586;-59
2023/09/27 05:26:15;;;;;;;10.63;9.63;;;11.20;99.90;;;;;;5014922;28;20687;-59
2023/09/27 05:28:42;;;;;;;12.37;11.13;;;11.20;99.90;;;;;;5015725;28;20496;-59
2023/09/27 05:31:09;;;;;;;11.60;10.40;;;11.20;99.90;;;;;;5015843;28;20504;-59
2023/09/27 05:33:37;;;;;;;11.53;9.97;;;11.20;99.90;;;;;;5015591;28;20460;-59
2023/09/27 05:36:05;;;;;;;13.50;11.00;;;11.20;99.90;;;;;;5015161;28;20463;-58
2023/09/27 05:38:32;;;;;;;14.40;11.33;;;11.10;99.90;;;;;;5023248;28;20499;-59
2023/09/27 05:40:59;;;;;;;12.70;11.40;;;11.20;99.90;;;;;;5034998;28;20459;-59
2023/09/27 05:43:28;;;;;;;13.50;12.00;;;11.20;99.90;;;;;;5034631;28;20491;-59
2023/09/27 05:45:56;;;;;;;12.67;11.50;;;11.30;99.90;;;;;;5035340;28;20472;-59
2023/09/27 05:48:24;;;;;;;12.90;11.70;;;11.30;99.90;;;;;;5035169;28;20563;-58
2023/09/27 05:50:51;;;;;;;12.57;11.37;;;11.40;99.90;;;;;;5033823;28;20503;-59
2023/09/27 05:53:19;;;;;;;12.70;11.40;;;11.40;99.90;;;;;;5034813;28;20508;-60
2023/09/27 05:55:47;;;;;;;13.93;12.63;;;11.40;99.90;;;;;;5035448;28;20469;-59
2023/09/27 05:58:14;;;;;;;14.33;12.60;;;11.40;99.90;;;;;;5035333;28;20566;-60
2023/09/27 06:00:46;;;;;;;13.77;12.50;;;11.50;99.90;;;;;;5035430;28;20551;-59
2023/09/27 06:03:12;;;;;;;14.27;12.77;;;11.60;99.90;;;;;;5034683;28;20762;-59
2023/09/27 06:05:41;;;;;;;14.80;13.27;;;11.60;99.90;;;;;;5034415;28;20505;-59
2023/09/27 06:08:08;;;;;;;13.80;12.40;;;11.70;99.90;;;;;;5034931;28;20501;-59
2023/09/27 06:10:35;;;;;;;13.60;12.30;;;11.80;99.90;;;;;;5035257;28;20562;-59
2023/09/27 06:13:03;;;;;;;15.73;13.70;;;12.00;99.90;;;;;;5034341;28;20459;-59
2023/09/27 06:15:34;;;;;;;15.43;13.80;;;12.00;99.90;;;;;;5034867;28;20459;-60
2023/09/27 06:18:03;;;;;;;16.53;14.93;;;12.10;99.90;;;;;;5035196;28;20487;-59
2023/09/27 06:20:30;;;;;;;16.27;14.67;;;12.10;99.90;;;;;;5035211;28;20562;-60
2023/09/27 06:23:03;;;;;;;15.17;13.77;;;12.30;99.90;;;;;;5034934;28;20804;-60
2023/09/27 06:25:30;;;;;;;15.17;13.50;;;12.50;99.90;;;;;;5034903;28;20523;-60
2023/09/27 06:28:00;;;;;;;16.40;12.90;;;12.70;99.90;;;;;;5035191;28;20459;-60
2023/09/27 06:30:28;;;;;;;15.00;13.40;;;13.00;99.90;;;;;;5035312;28;20463;-59
2023/09/27 06:32:55;;;;;;;15.00;13.60;;;13.20;99.90;;;;;;5035233;28;20487;-60
2023/09/27 06:35:24;;;;;;;15.33;13.83;;;13.40;99.90;;;;;;5034881;28;20459;-59
2023/09/27 06:37:51;;;;;;;21.53;12.10;;;13.60;99.90;;;;;;5034229;28;20460;-59
2023/09/27 06:40:22;;;;;;;15.13;13.63;;;13.80;99.90;;;;;;5034863;28;20467;-59
2023/09/27 06:42:49;;;;;;;17.80;11.80;;;14.00;99.90;;;;;;5035410;28;20459;-60
2023/09/27 06:45:17;;;;;;;13.57;12.27;;;14.30;99.90;;;;;;5034961;28;20574;-59
2023/09/27 06:47:46;;;;;;;12.27;10.70;;;14.40;99.90;;;;;;5035368;28;20459;-60
2023/09/27 06:50:13;;;;;;;15.50;11.17;;;14.50;99.90;;;;;;5034781;28;20459;-60
2023/09/27 06:52:42;;;;;;;12.17;10.93;;;14.60;99.90;;;;;;5031413;28;20491;-60
2023/09/27 06:55:11;;;;;;;11.77;10.67;;;14.70;99.90;;;;;;5033839;28;20550;-59
2023/09/27 06:57:39;;;;;;;11.50;10.00;;;14.60;99.90;;;;;;5033076;28;20766;-60
2023/09/27 07:00:12;;;;;;;9.20;8.30;;;14.60;1.00;;;;;;5033040;28;20502;-59
2023/09/27 07:02:42;;;;;;;8.80;8.00;;;14.30;99.90;;;;;;5033369;28;20482;-60
2023/09/27 07:05:11;;;;;;;9.33;8.43;;;14.30;99.90;;;;;;5037084;28;20529;-60
2023/09/27 07:07:38;;;;;;;9.10;8.23;;;14.30;99.90;;;;;;5036039;28;20956;-59
2023/09/27 07:10:08;;;;;;;11.20;8.67;;;14.40;99.90;;;;;;5036957;28;20459;-59
2023/09/27 07:12:36;;;;;;;12.97;11.40;;;14.60;99.90;;;;;;5036856;28;20455;-60
2023/09/27 07:15:12;;;;;;;13.37;12.13;;;14.60;99.00;;;;;;5036543;28;20491;-59
2023/09/27 07:17:40;;;;;;;12.73;11.50;;;14.70;99.90;;;;;;5036409;28;20490;-60
2023/09/27 07:20:17;;;;;;;12.43;11.23;;;14.70;99.90;;;;;;5036872;28;20814;-60
2023/09/27 07:22:44;;;;;;;15.03;11.47;;;14.90;99.90;;;;;;5037678;28;20458;-60
2023/09/27 07:25:16;;;;;;;14.00;12.50;;;15.00;99.90;;;;;;5036504;28;20585;-60
2023/09/27 07:27:43;;;;;;;12.13;10.93;;;15.10;99.90;;;;;;5038564;28;20541;-60
2023/09/27 07:30:11;;;;;;;12.13;10.77;;;15.10;99.90;;;;;;5038588;28;20467;-60
2023/09/27 07:32:39;;;;;;;14.17;12.87;;;15.20;97.80;;;;;;5038031;28;20470;-60
2023/09/27 07:35:10;;;;;;;12.33;10.93;;;15.30;22.40;;;;;;5038019;28;20455;-60
2023/09/27 07:37:38;;;;;;;14.50;12.23;;;15.30;1.00;;;;;;5038535;28;20785;-60
2023/09/27 07:40:09;;;;;;;14.83;13.43;;;15.40;7.20;;;;;;5037465;28;20459;-60
2023/09/27 07:42:38;;;;;;;12.47;11.07;;;15.40;6.00;;;;;;5038003;28;20520;-60
2023/09/27 07:45:09;;;;;;;13.30;12.00;;;15.50;1.00;;;;;;5037762;28;20853;-60
2023/09/27 07:47:36;;;;;;;13.63;12.23;;;15.50;1.00;;;;;;5038149;28;20460;-60
2023/09/27 07:50:04;;;;;;;14.93;12.23;;;15.50;1.00;;;;;;5038171;28;20465;-60
2023/09/27 07:52:32;;;;;;;13.83;11.90;;;15.70;12.30;;;;;;5038199;28;20546;-60
2023/09/27 07:55:04;;;;;;;12.20;11.10;;;15.80;79.80;;;;;;5037666;28;20549;-60
2023/09/27 07:57:31;;;;;;;21.67;11.20;;;15.90;88.20;;;;;;5037943;28;20501;-60
2023/09/27 08:00:00;;;;;;;13.67;12.20;;;16.00;52.90;;;;;;5037624;28;20459;-60
2023/09/27 08:02:27;;;;;;;12.87;11.57;;;16.10;6.80;;;;;;5038308;28;20466;-60
2023/09/27 08:04:55;;;;;;;18.17;13.80;;;16.20;1.00;;;;;;5037902;28;20792;-59
2023/09/27 08:07:22;;;;;;;17.33;12.50;;;16.20;1.00;;;;;;5046366;27;20474;-60
2023/09/27 08:09:51;;;;;;;13.10;11.13;;;16.40;1.00;;;;;;5055889;28;20465;-60
2023/09/27 08:12:20;;;;;;;12.43;11.10;;;16.60;1.00;;;;;;5057628;28;20462;-60
2023/09/27 08:14:47;;;;;;;15.20;11.93;;;16.60;1.00;;;;;;5057752;28;20459;-60
2023/09/27 08:17:16;;;;;;;14.67;11.77;;;16.90;1.00;;;;;;5057806;28;20606;-60
2023/09/27 08:19:44;;;;;;;14.37;9.97;;;17.20;1.00;;;;;;5057734;28;20497;-60
2023/09/27 08:22:11;;;;;;;10.07;9.07;;;17.80;99.90;;;;;;5033083;28;20930;-60
2023/09/27 08:24:38;;;;;;;10.03;8.77;;;18.30;99.90;;;;;;5035620;28;20503;-59
2023/09/27 08:27:06;;;;;;;10.43;8.80;;;18.90;99.90;;;;;;5035100;28;20819;-57
2023/09/27 08:29:33;;;;;;;9.43;8.37;;;19.40;99.90;;;;;;5035096;28;20892;-60
2023/09/27 08:32:01;;;;;;;9.47;7.23;;;19.70;1.00;;;;;;5035359;28;20568;-60
2023/09/27 08:34:30;;;;;;;8.17;7.27;;;20.10;1.00;;;;;;5035530;28;20455;-60
2023/09/27 08:36:57;;;;;;;9.47;7.00;;;20.30;99.90;;;;;;5034600;28;20466;-59
2023/09/27 08:39:24;;;;;;;10.57;8.20;;;20.40;99.90;;;;;;5035180;28;20509;-60
2023/09/27 08:41:53;;;;;;;7.63;6.80;;;20.40;99.90;;;;;;5036455;28;20485;-60
2023/09/27 08:44:21;;;;;;;9.37;8.00;;;20.60;1.00;;;;;;5036412;28;20495;-61
2023/09/27 08:46:48;;;;;;;8.53;7.00;;;20.70;99.90;;;;;;5036045;28;20827;-60
2023/09/27 08:49:17;;;;;;;8.37;6.20;;;21.00;99.90;;;;;;5035854;28;20459;-61
2023/09/27 08:51:47;;;;;;;6.37;5.13;;;21.20;99.90;;;;;;5035895;28;20474;-61
2023/09/27 08:54:17;;;;;;;6.03;5.43;;;21.70;99.90;;;;;;5036576;28;20434;-61
2023/09/27 08:56:48;;;;;;;7.90;5.13;;;21.70;1.00;;;;;;5036251;28;20459;-61
2023/09/27 08:59:16;;;;;;;5.70;5.20;;;21.70;1.00;;;;;;5036109;28;20562;-60
2023/09/27 09:01:45;;;;;;;6.00;5.00;;;21.70;1.00;;;;;;5036244;28;20462;-60
2023/09/27 09:04:12;;;;;;;5.93;5.33;;;21.80;1.00;;;;;;5036073;28;20888;-60
2023/09/27 09:06:40;;;;;;;4.90;4.50;;;21.90;1.00;;;;;;5036277;28;20490;-60
2023/09/27 09:09:11;;;;;;;5.47;4.80;;;21.70;1.00;;;;;;5035788;28;20506;-60
2023/09/27 09:11:43;;;;;;;5.27;4.77;;;21.60;1.00;;;;;;5035798;28;20524;-60
2023/09/27 09:14:10;;;;;;;5.60;4.90;;;21.40;1.00;;;;;;5035824;28;20463;-60
2023/09/27 09:16:47;;;;;;;8.23;4.90;;;21.20;1.00;;;;;;5035220;28;20554;-60
2023/09/27 09:19:20;;;;;;;7.00;4.57;;;21.20;1.00;;;;;;5035665;28;20463;-60
2023/09/27 09:21:55;;;;;;;5.03;4.57;;;21.40;1.00;;;;;;5036093;28;20459;-60
2023/09/27 09:24:24;;;;;;;7.20;5.23;;;21.50;1.00;;;;;;5035959;28;20502;-60
2023/09/27 09:27:07;;;;;;;5.53;5.03;;;21.60;1.00;;;;;;5034666;28;20488;-61
2023/09/27 09:29:50;;;;;;;7.60;5.10;;;22.20;1.00;;;;;;5035710;28;20465;-61
2023/09/27 09:32:19;;;;;;;7.60;4.67;;;22.50;1.00;;;;;;5032981;28;20494;-61
2023/09/27 09:34:48;;;;;;;5.63;4.53;;;22.90;1.00;;;;;;5035627;28;20451;-61
2023/09/27 09:37:22;;;;;;;4.67;4.20;;;23.20;1.00;;;;;;5035041;28;20466;-61
2023/09/27 09:39:52;;;;;;;9.13;5.10;;;23.60;1.00;;;;;;5035636;28;20458;-61
2023/09/27 09:42:34;;;;;;;5.63;4.70;;;23.90;1.00;;;;;;5035460;28;20463;-61
2023/09/27 09:45:05;;;;;;;5.40;4.90;;;24.10;99.90;;;;;;5035144;28;20495;-61
2023/09/27 09:47:35;;;;;;;4.87;4.27;;;24.20;99.90;;;;;;5035599;28;20850;-60
2023/09/27 09:50:05;;;;;;;5.53;3.90;;;24.30;99.90;;;;;;5035518;28;20772;-61
2023/09/27 09:52:35;;;;;;;4.87;4.37;;;24.40;99.90;;;;;;5035549;28;20455;-61
2023/09/27 09:55:06;;;;;;;5.47;3.73;;;24.40;99.90;;;;;;5034425;28;20809;-61
2023/09/27 09:57:36;;;;;;;6.10;4.43;;;24.50;99.90;;;;;;5034570;28;20455;-61
2023/09/27 10:00:16;;;;;;;6.07;4.23;;;24.70;99.90;;;;;;5034473;28;20451;-60
2023/09/27 10:02:53;;;;;;;7.40;4.30;;;24.90;99.90;;;;;;5033794;28;20470;-58
2023/09/27 10:05:21;;;;;;;5.77;5.17;;;24.80;31.00;;;;;;5034013;28;20919;-60
2023/09/27 10:07:49;;;;;;;5.43;4.30;;;24.50;1.00;;;;;;5033295;28;20470;-59
2023/09/27 10:10:20;;;;;;;6.00;4.17;;;24.30;1.00;;;;;;5033853;28;20466;-61
2023/09/27 10:12:50;;;;;;;5.77;4.90;;;24.30;1.00;;;;;;5035296;28;20931;-61
2023/09/27 10:15:20;;;;;;;6.00;4.60;;;24.50;1.00;;;;;;5034618;28;20786;-62
2023/09/27 10:17:47;;;;;;;4.80;4.30;;;24.70;1.00;;;;;;5034376;28;20491;-61
2023/09/27 10:20:19;;;;;;;5.27;4.57;;;24.90;1.00;;;;;;5035044;28;20459;-61
2023/09/27 10:22:48;;;;;;;5.10;4.60;;;25.10;1.00;;;;;;5034934;28;20485;-61
2023/09/27 10:25:35;;;;;;;5.10;4.60;;;25.40;1.00;;;;;;5022626;28;20549;-60
2023/09/27 10:28:11;;;;;;;5.07;4.67;;;25.70;1.00;;;;;;5012630;28;20554;-60
2023/09/27 10:31:07;;;;;;;5.97;4.33;;;25.70;1.00;;;;;;5012004;28;20520;-60
2023/09/27 10:33:34;;;;;;;5.40;4.90;;;26.20;1.00;;;;;;5013233;28;20452;-60
2023/09/27 10:36:32;;;;;;;4.63;4.23;;;26.40;1.00;;;;;;5013381;28;20567;-61
2023/09/27 10:39:05;;;;;;;4.40;4.00;;;26.70;1.00;;;;;;5013182;28;20559;-61
2023/09/27 10:41:58;;;;;;;5.17;4.77;;;26.60;1.00;;;;;;5013897;28;20463;-61
2023/09/27 10:44:29;;;;;;;6.90;5.53;;;26.70;1.00;;;;;;4995760;28;20471;-61
2023/09/27 10:46:57;;;;;;;4.93;4.23;;;27.10;1.00;;;;;;5014615;28;20825;-62
2023/09/27 10:49:26;;;;;;;5.17;4.13;;;27.50;1.00;;;;;;5014567;28;20468;-62
2023/09/27 10:51:53;;;;;;;4.27;3.87;;;27.60;1.00;;;;;;5014720;28;20825;-62
2023/09/27 10:54:25;;;;;;;4.53;4.13;;;27.40;1.00;;;;;;5014688;28;20744;-60
2023/09/27 10:56:55;;;;;;;9.67;4.43;;;27.10;1.00;;;;;;5014532;28;20452;-61
2023/09/27 10:59:25;;;;;;;4.40;4.00;;;26.70;1.00;;;;;;5014149;28;20884;-61
2023/09/27 11:01:53;;;;;;;4.53;3.80;;;26.20;1.00;;;;;;5014475;28;20460;-61
2023/09/27 11:04:24;;;;;;;5.10;4.60;;;25.90;99.90;;;;;;5014887;28;20550;-60
2023/09/27 11:06:52;;;;;;;4.20;3.80;;;26.00;99.90;;;;;;5014939;28;20488;-61
2023/09/27 11:09:20;;;;;;;4.43;4.03;;;26.00;99.90;;;;;;5013319;28;20554;-61
2023/09/27 11:11:48;;;;;;;4.20;3.80;;;25.90;99.90;;;;;;5014031;28;20486;-61
2023/09/27 11:14:28;;;;;;;6.23;3.53;;;25.90;99.90;;;;;;5013839;28;20464;-61
2023/09/27 11:16:55;;;;;;;4.00;3.37;;;26.00;99.90;;;;;;5013521;28;20483;-61
2023/09/27 11:19:31;;;;;;;4.17;3.70;;;26.20;99.90;;;;;;5012257;28;20487;-61
2023/09/27 11:21:59;;;;;;;3.63;3.33;;;26.60;99.90;;;;;;5011966;28;20915;-61
2023/09/27 11:24:38;;;;;;;3.73;2.80;;;27.20;99.90;;;;;;5012124;28;20486;-62
2023/09/27 11:27:06;;;;;;;7.63;4.10;;;27.70;1.00;;;;;;5011548;28;20496;-61
2023/09/27 11:29:38;;;;;;;4.27;3.97;;;27.80;1.00;;;;;;5011813;28;20509;-61
2023/09/27 11:32:06;;;;;;;3.83;3.50;;;28.10;1.00;;;;;;5013073;28;20464;-61
2023/09/27 11:34:33;;;;;;;4.17;3.87;;;28.40;99.90;;;;;;5013304;28;20468;-62
2023/09/27 11:37:02;;;;;;;5.30;3.63;;;28.50;99.90;;;;;;5012251;28;20456;-61
2023/09/27 11:39:47;;;;;;;4.03;3.73;;;28.60;99.90;;;;;;5011768;28;20562;-60
2023/09/27 11:42:15;;;;;;;6.23;3.70;;;28.80;1.00;;;;;;5010340;28;20517;-61
2023/09/27 11:44:43;;;;;;;3.73;3.30;;;28.70;99.90;;;;;;5009877;28;20478;-60
2023/09/27 11:47:11;;;;;;;3.70;3.40;;;28.50;99.90;;;;;;5009056;28;20500;-60
2023/09/27 11:49:39;;;;;;;7.73;3.93;;;28.20;99.90;;;;;;5010324;28;20460;-61
2023/09/27 11:52:10;;;;;;;4.47;4.07;;;27.80;99.80;;;;;;5013691;28;20456;-61
2023/09/27 11:54:42;;;;;;;3.83;3.53;;;27.60;99.90;;;;;;5014086;28;20517;-61
2023/09/27 11:57:09;;;;;;;4.40;3.43;;;27.50;99.90;;;;;;5015488;28;20747;-60
2023/09/27 11:59:39;;;;;;;4.23;3.53;;;27.00;99.90;;;;;;5016698;28;20459;-59
2023/09/27 12:02:08;;;;;;;3.80;3.50;;;26.80;99.90;;;;;;4982516;28;20893;-61
2023/09/27 12:04:36;;;;;;;6.37;3.73;;;26.60;99.90;;;;;;5015394;28;20554;-60
2023/09/27 12:07:04;;;;;;;6.10;3.73;;;26.40;99.90;;;;;;5033274;28;20551;-61
2023/09/27 12:09:31;;;;;;;3.97;3.50;;;26.30;99.90;;;;;;5035082;28;20876;-61
2023/09/27 12:11:59;;;;;;;4.30;3.90;;;26.40;99.90;;;;;;5028267;28;20455;-61
2023/09/27 12:14:27;;;;;;;4.23;3.83;;;26.90;99.90;;;;;;5034639;28;20515;-61
2023/09/27 12:16:54;;;;;;;3.83;3.53;;;27.30;99.90;;;;;;5031488;28;20927;-61
2023/09/27 12:19:23;;;;;;;5.70;3.77;;;27.70;99.90;;;;;;5017835;28;20492;-61
2023/09/27 12:21:51;;;;;;;3.83;3.53;;;27.60;99.90;;;;;;5016976;28;20504;-60
2023/09/27 12:24:20;;;;;;;4.20;3.80;;;27.30;99.90;;;;;;5017236;28;20463;-61
2023/09/27 12:26:48;;;;;;;4.03;3.60;;;27.10;99.90;;;;;;5016829;28;20936;-61
2023/09/27 12:29:15;;;;;;;4.10;3.30;;;26.90;99.90;;;;;;5025161;28;20466;-60
2023/09/27 12:31:44;;;;;;;4.00;3.30;;;26.80;99.90;;;;;;5035818;28;20764;-60
2023/09/27 12:34:11;;;;;;;3.77;3.40;;;26.60;99.90;;;;;;5035025;28;20463;-60
2023/09/27 12:36:41;;;;;;;4.30;4.00;;;26.50;99.90;;;;;;5034895;28;20495;-60
2023/09/27 12:39:08;;;;;;;4.63;3.57;;;26.80;1.00;;;;;;5034319;28;20459;-57
2023/09/27 12:41:35;;;;;;;4.77;3.60;;;27.30;99.90;;;;;;5023137;28;20452;-61
2023/09/27 12:44:03;;;;;;;5.00;4.20;;;27.70;99.90;;;;;;5019758;28;20464;-61
2023/09/27 12:46:32;;;;;;;4.00;3.70;;;27.90;99.90;;;;;;5022089;28;20492;-60
2023/09/27 12:48:59;;;;;;;3.70;3.17;;;28.40;99.90;;;;;;5021178;28;20463;-61
2023/09/27 12:51:27;;;;;;;3.50;3.20;;;28.70;99.90;;;;;;5014331;28;20520;-60